Time;durP1;ratioP1;P1;durP2;ratioP2;P2;SDS_P1;SDS_P2;PMS_P1;PMS_P2;Temp;Humidity;BMP_temperature;BMP_pressure;BME280_temperature;BME280_humidity;BME280_pressure;Samples;Min_cycle;Max_cycle;Signal;HPM_P1;HPM_P2
2022/06/09 00:00:53;;;;;;;18.80;7.78;;;23.00;99.90;;;;;;5098444;28;20050;-76
2022/06/09 00:03:26;;;;;;;16.05;8.45;;;23.00;99.90;;;;;;5082211;28;20048;-76
2022/06/09 00:05:54;;;;;;;15.82;7.80;;;23.10;99.90;;;;;;5090764;28;20046;-76
2022/06/09 00:08:23;;;;;;;16.27;7.05;;;23.10;99.90;;;;;;5091191;28;20055;-76
2022/06/09 00:10:57;;;;;;;11.63;7.13;;;23.10;99.90;;;;;;5091649;28;20060;-76
2022/06/09 00:13:25;;;;;;;18.95;8.00;;;23.10;99.90;;;;;;5074281;28;20067;-76
2022/06/09 00:15:52;;;;;;;14.70;8.30;;;23.00;99.90;;;;;;5092530;28;20064;-75
2022/06/09 00:18:22;;;;;;;12.63;8.15;;;22.90;99.90;;;;;;5091372;28;20048;-76
2022/06/09 00:20:51;;;;;;;17.25;8.30;;;22.90;99.90;;;;;;5091333;28;20044;-76
2022/06/09 00:23:19;;;;;;;13.07;9.02;;;22.90;99.90;;;;;;5090708;28;20052;-76
2022/06/09 00:25:47;;;;;;;13.38;7.85;;;22.90;99.90;;;;;;5074271;28;20052;-76
2022/06/09 00:28:15;;;;;;;13.90;8.00;;;22.90;99.90;;;;;;5092460;28;20594;-75
2022/06/09 00:30:42;;;;;;;17.75;8.60;;;22.80;99.90;;;;;;5106830;28;20043;-75
2022/06/09 00:33:10;;;;;;;12.00;8.15;;;22.80;99.90;;;;;;5090274;28;20142;-76
2022/06/09 00:35:38;;;;;;;13.57;6.80;;;22.80;99.90;;;;;;5090159;28;20047;-75
2022/06/09 00:38:06;;;;;;;14.65;8.43;;;22.70;99.90;;;;;;5090837;28;20066;-76
2022/06/09 00:40:34;;;;;;;12.65;8.20;;;22.80;99.90;;;;;;5090608;28;20146;-76
2022/06/09 00:43:04;;;;;;;12.55;7.15;;;22.80;99.90;;;;;;5107645;28;20048;-76
2022/06/09 00:45:38;;;;;;;15.60;7.72;;;22.80;99.90;;;;;;5090807;28;20170;-76
2022/06/09 00:48:06;;;;;;;17.27;8.40;;;22.70;99.90;;;;;;5090730;28;20032;-76
2022/06/09 00:50:37;;;;;;;18.92;8.05;;;22.80;99.90;;;;;;5057385;28;20410;-75
2022/06/09 00:53:12;;;;;;;13.48;7.43;;;22.80;99.90;;;;;;5073733;28;20145;-75
2022/06/09 00:55:42;;;;;;;14.75;7.80;;;22.80;99.90;;;;;;5072769;28;20142;-75
2022/06/09 00:58:15;;;;;;;16.23;7.40;;;22.80;99.90;;;;;;5090008;28;20044;-75
2022/06/09 01:01:02;;;;;;;18.30;9.52;;;22.80;99.90;;;;;;5091677;28;20050;-75
2022/06/09 01:03:42;;;;;;;15.10;8.85;;;22.80;99.90;;;;;;5107019;28;20032;-75
2022/06/09 01:06:17;;;;;;;14.52;8.90;;;22.70;99.90;;;;;;5091553;28;20044;-75
2022/06/09 01:09:04;;;;;;;14.07;7.82;;;22.60;99.90;;;;;;5072390;28;20534;-75
2022/06/09 01:11:33;;;;;;;15.30;7.50;;;22.50;99.90;;;;;;5090738;28;20139;-75
2022/06/09 01:14:02;;;;;;;14.73;7.97;;;22.40;99.90;;;;;;5106932;28;20097;-76
2022/06/09 01:16:49;;;;;;;17.95;9.15;;;22.40;99.90;;;;;;5091131;28;20044;-75
2022/06/09 01:19:25;;;;;;;15.60;8.60;;;22.50;99.90;;;;;;5072879;28;20063;-75
2022/06/09 01:22:18;;;;;;;23.45;8.48;;;22.50;99.90;;;;;;5088161;28;20036;-75
2022/06/09 01:25:21;;;;;;;14.45;8.30;;;22.60;99.90;;;;;;5098851;28;20047;-75
2022/06/09 01:28:17;;;;;;;17.42;8.25;;;22.60;99.90;;;;;;5088218;28;20051;-75
2022/06/09 01:31:01;;;;;;;14.80;7.70;;;22.50;99.90;;;;;;5092637;28;20066;-76
2022/06/09 01:33:37;;;;;;;14.82;8.95;;;22.50;99.90;;;;;;5108125;28;20043;-75
2022/06/09 01:36:11;;;;;;;17.63;9.60;;;22.50;99.90;;;;;;5111538;28;20159;-76
2022/06/09 01:38:53;;;;;;;14.45;9.02;;;22.50;99.90;;;;;;5111014;28;20043;-75
2022/06/09 01:41:22;;;;;;;20.50;9.32;;;22.50;99.90;;;;;;5092415;28;20401;-75
2022/06/09 01:43:52;;;;;;;13.70;8.40;;;22.50;99.90;;;;;;5110989;28;20073;-75
2022/06/09 01:46:25;;;;;;;20.98;9.00;;;22.50;99.90;;;;;;5109853;28;20078;-76
2022/06/09 01:48:57;;;;;;;12.20;8.23;;;22.60;99.90;;;;;;5093148;28;20116;-76
2022/06/09 01:51:29;;;;;;;13.57;7.78;;;22.70;99.90;;;;;;5093104;28;20127;-76
2022/06/09 01:54:26;;;;;;;15.10;9.35;;;22.70;99.90;;;;;;5109524;28;20057;-75
2022/06/09 01:57:04;;;;;;;22.33;9.00;;;22.70;99.90;;;;;;5108845;28;20478;-75
2022/06/09 01:59:38;;;;;;;16.40;9.25;;;22.70;99.90;;;;;;5093193;28;20055;-76
2022/06/09 02:02:21;;;;;;;21.20;8.10;;;22.80;99.90;;;;;;5092935;28;20051;-75
2022/06/09 02:04:55;;;;;;;15.52;8.68;;;22.70;99.90;;;;;;5092956;28;20047;-75
2022/06/09 02:07:27;;;;;;;14.50;7.82;;;22.70;99.90;;;;;;5109914;28;20059;-75
2022/06/09 02:09:55;;;;;;;14.18;8.32;;;22.70;99.90;;;;;;5109557;28;20047;-76
2022/06/09 02:12:25;;;;;;;15.25;8.18;;;22.70;99.90;;;;;;5087637;28;20143;-75
2022/06/09 02:14:58;;;;;;;12.48;7.57;;;22.60;99.90;;;;;;5090215;28;20044;-75
2022/06/09 02:17:25;;;;;;;11.13;7.95;;;22.50;99.90;;;;;;5089165;28;20040;-76
2022/06/09 02:19:53;;;;;;;11.63;8.02;;;22.50;99.90;;;;;;5072562;28;20059;-75
2022/06/09 02:22:21;;;;;;;14.40;7.55;;;22.60;99.90;;;;;;5089050;28;20691;-75
2022/06/09 02:24:48;;;;;;;14.30;8.77;;;22.50;99.90;;;;;;5090419;28;20048;-75
2022/06/09 02:27:16;;;;;;;13.68;8.40;;;22.50;99.90;;;;;;5089166;28;20420;-75
2022/06/09 02:29:44;;;;;;;14.88;7.30;;;22.50;99.90;;;;;;5088945;28;20478;-76
2022/06/09 02:32:12;;;;;;;18.73;7.78;;;22.40;99.90;;;;;;5072310;28;20079;-75
2022/06/09 02:34:39;;;;;;;14.30;7.65;;;22.40;99.90;;;;;;5089855;28;20857;-75
2022/06/09 02:37:07;;;;;;;13.10;7.80;;;22.40;99.90;;;;;;5088305;28;20064;-75
2022/06/09 02:39:35;;;;;;;14.80;8.48;;;22.30;99.90;;;;;;5088804;28;20040;-75
2022/06/09 02:42:03;;;;;;;11.68;7.63;;;22.30;99.90;;;;;;5089807;28;20367;-75
2022/06/09 02:44:31;;;;;;;13.68;8.20;;;22.30;99.90;;;;;;5071545;28;20051;-75
2022/06/09 02:46:59;;;;;;;19.48;9.57;;;22.30;99.90;;;;;;5088968;28;20048;-75
2022/06/09 02:49:26;;;;;;;15.02;7.82;;;22.30;99.90;;;;;;5090104;28;20043;-75
2022/06/09 02:51:54;;;;;;;14.82;8.13;;;22.30;99.90;;;;;;5089335;28;20109;-76
2022/06/09 02:54:22;;;;;;;16.08;9.48;;;22.30;99.90;;;;;;5088702;28;20036;-75
2022/06/09 02:56:49;;;;;;;14.10;8.57;;;22.30;99.90;;;;;;5089081;28;20058;-74
2022/06/09 02:59:18;;;;;;;16.73;8.73;;;22.20;99.90;;;;;;5098259;28;20651;-75
2022/06/09 03:01:46;;;;;;;15.02;8.57;;;22.20;99.90;;;;;;5104143;28;20047;-75
2022/06/09 03:04:14;;;;;;;12.25;7.97;;;22.20;99.90;;;;;;5090148;28;20050;-75
2022/06/09 03:06:41;;;;;;;12.77;8.85;;;22.20;99.90;;;;;;5108580;28;20043;-75
2022/06/09 03:09:09;;;;;;;12.13;8.00;;;22.20;99.90;;;;;;5110271;28;20054;-75
2022/06/09 03:11:37;;;;;;;10.98;7.30;;;22.30;99.90;;;;;;5092115;28;20048;-75
2022/06/09 03:14:05;;;;;;;16.45;8.10;;;22.30;99.90;;;;;;5108924;28;20044;-75
2022/06/09 03:16:33;;;;;;;17.42;8.18;;;22.30;99.90;;;;;;5108165;28;20043;-75
2022/06/09 03:19:00;;;;;;;12.57;7.28;;;22.30;99.90;;;;;;5110846;28;20413;-75
2022/06/09 03:21:28;;;;;;;10.73;7.25;;;22.40;99.90;;;;;;5113878;28;20043;-75
2022/06/09 03:23:57;;;;;;;19.45;8.90;;;22.40;99.90;;;;;;5112243;28;20040;-75
2022/06/09 03:26:25;;;;;;;13.65;8.23;;;22.50;99.90;;;;;;5111424;28;20493;-75
2022/06/09 03:28:53;;;;;;;13.23;8.48;;;22.50;99.90;;;;;;5095016;28;20051;-75
2022/06/09 03:31:20;;;;;;;17.35;8.15;;;22.50;99.90;;;;;;5112572;28;20043;-75
2022/06/09 03:33:49;;;;;;;15.50;8.77;;;22.50;99.90;;;;;;5095275;28;20486;-75
2022/06/09 03:36:17;;;;;;;14.07;7.55;;;22.40;99.90;;;;;;5112365;28;20504;-75
2022/06/09 03:38:45;;;;;;;10.60;8.02;;;22.50;99.90;;;;;;5113428;28;20100;-75
2022/06/09 03:41:13;;;;;;;14.05;6.70;;;22.50;99.90;;;;;;5095477;28;20047;-75
2022/06/09 03:43:40;;;;;;;16.15;7.90;;;22.50;99.90;;;;;;5113363;28;20035;-75
2022/06/09 03:46:11;;;;;;;16.80;7.85;;;22.50;99.90;;;;;;5111973;28;20077;-75
2022/06/09 03:48:39;;;;;;;13.35;6.68;;;22.50;99.90;;;;;;5112005;28;20227;-75
2022/06/09 03:51:07;;;;;;;17.20;7.38;;;22.50;99.90;;;;;;5110343;28;20054;-76
2022/06/09 03:53:35;;;;;;;15.32;7.80;;;22.50;99.90;;;;;;5111673;28;20036;-75
2022/06/09 03:56:02;;;;;;;16.92;7.45;;;22.50;99.90;;;;;;5112030;28;20059;-75
2022/06/09 03:58:30;;;;;;;10.18;7.03;;;22.60;99.90;;;;;;5095093;28;20039;-75
2022/06/09 04:00:58;;;;;;;8.63;6.45;;;22.60;99.90;;;;;;5095113;28;20487;-76
2022/06/09 04:03:25;;;;;;;14.02;6.88;;;22.60;99.90;;;;;;5098345;28;20136;-76
2022/06/09 04:05:54;;;;;;;13.40;6.82;;;22.60;99.90;;;;;;5110550;28;20032;-75
2022/06/09 04:08:22;;;;;;;9.75;6.97;;;22.60;99.90;;;;;;5092682;28;20497;-75
2022/06/09 04:10:49;;;;;;;14.60;8.13;;;22.60;99.90;;;;;;5100801;28;20050;-75
2022/06/09 04:13:17;;;;;;;9.65;6.90;;;22.60;99.90;;;;;;5081067;28;20052;-75
2022/06/09 04:15:46;;;;;;;9.75;6.00;;;22.60;99.90;;;;;;5073080;28;20046;-75
2022/06/09 04:18:13;;;;;;;12.05;6.63;;;22.70;99.90;;;;;;5111039;28;20748;-75
2022/06/09 04:20:41;;;;;;;15.68;8.25;;;22.70;99.90;;;;;;5112345;28;20778;-75
2022/06/09 04:23:09;;;;;;;11.98;6.35;;;22.70;99.90;;;;;;5094208;28;20390;-75
2022/06/09 04:25:38;;;;;;;13.07;6.32;;;22.80;99.90;;;;;;5094390;28;20488;-75
2022/06/09 04:28:06;;;;;;;10.25;6.78;;;22.80;99.90;;;;;;5111101;28;20785;-75
2022/06/09 04:30:33;;;;;;;20.35;8.30;;;22.80;99.90;;;;;;5110066;28;20481;-75
2022/06/09 04:33:01;;;;;;;12.48;6.60;;;22.90;99.90;;;;;;5112606;28;20074;-75
2022/06/09 04:35:29;;;;;;;10.23;6.35;;;23.00;99.90;;;;;;5093886;28;20048;-75
2022/06/09 04:37:59;;;;;;;13.18;6.63;;;23.10;99.90;;;;;;5084229;28;20055;-76
2022/06/09 04:40:33;;;;;;;9.63;5.60;;;23.10;99.90;;;;;;5107403;28;20090;-75
2022/06/09 04:43:03;;;;;;;9.00;5.50;;;23.20;99.90;;;;;;5091165;28;20082;-75
2022/06/09 04:45:31;;;;;;;13.68;6.32;;;23.10;99.90;;;;;;5091715;28;20514;-75
2022/06/09 04:47:59;;;;;;;14.93;5.38;;;23.20;99.90;;;;;;5090133;28;20564;-75
2022/06/09 04:50:27;;;;;;;13.05;5.70;;;23.20;99.90;;;;;;5091343;28;20048;-75
2022/06/09 04:52:55;;;;;;;10.30;5.38;;;23.20;99.90;;;;;;5089758;28;20059;-75
2022/06/09 04:55:23;;;;;;;8.63;5.13;;;23.30;99.90;;;;;;5090679;28;20588;-75
2022/06/09 04:57:51;;;;;;;8.13;5.50;;;23.30;99.90;;;;;;5056651;28;20398;-75
2022/06/09 05:00:19;;;;;;;13.75;6.35;;;23.20;99.90;;;;;;5089530;28;20051;-75
2022/06/09 05:02:47;;;;;;;12.02;5.82;;;23.30;99.90;;;;;;5090604;28;20143;-77
2022/06/09 05:05:23;;;;;;;11.35;5.85;;;23.30;99.90;;;;;;5090059;28;20086;-75
2022/06/09 05:07:52;;;;;;;9.25;6.10;;;23.30;99.90;;;;;;5089721;28;20047;-75
2022/06/09 05:10:20;;;;;;;8.45;4.97;;;23.30;99.90;;;;;;5072994;28;20058;-75
2022/06/09 05:12:47;;;;;;;13.50;5.18;;;23.30;99.90;;;;;;5056579;28;20060;-75
2022/06/09 05:15:19;;;;;;;13.80;5.88;;;23.40;99.90;;;;;;5073160;28;20129;-75
2022/06/09 05:17:48;;;;;;;14.98;5.63;;;23.40;99.90;;;;;;5073416;28;20079;-75
2022/06/09 05:20:23;;;;;;;13.85;4.93;;;23.60;99.90;;;;;;5106951;28;20047;-75
2022/06/09 05:22:51;;;;;;;6.90;5.28;;;23.70;99.90;;;;;;5091080;28;20043;-76
2022/06/09 05:25:19;;;;;;;8.07;4.72;;;24.00;99.90;;;;;;5106766;28;20509;-75
2022/06/09 05:27:47;;;;;;;11.23;4.53;;;24.20;99.90;;;;;;5089745;28;20068;-75
2022/06/09 05:30:19;;;;;;;8.73;5.07;;;24.40;99.90;;;;;;5090971;28;20043;-75
2022/06/09 05:32:48;;;;;;;11.88;5.65;;;24.60;99.90;;;;;;5091158;28;20048;-75
2022/06/09 05:35:17;;;;;;;9.27;5.32;;;24.70;99.90;;;;;;5056532;28;20175;-75
2022/06/09 05:46:08;;;;;;;8.75;4.68;;;24.40;99.90;;;;;;5110626;28;20051;-76
2022/06/09 05:48:35;;;;;;;10.95;4.43;;;24.60;99.90;;;;;;5110989;28;20031;-76
2022/06/09 05:51:04;;;;;;;10.18;3.88;;;24.80;99.90;;;;;;5109764;28;20135;-76
2022/06/09 05:53:32;;;;;;;9.38;4.40;;;25.00;99.90;;;;;;5109817;28;20036;-76
2022/06/09 05:56:00;;;;;;;6.05;4.07;;;25.30;99.90;;;;;;5092613;28;20134;-76
2022/06/09 05:58:28;;;;;;;7.13;3.00;;;25.60;99.90;;;;;;5109622;28;20771;-75
2022/06/09 06:00:55;;;;;;;7.28;3.22;;;25.90;99.90;;;;;;5109800;28;20035;-75
2022/06/09 06:03:23;;;;;;;6.60;2.90;;;26.00;99.90;;;;;;5109721;28;20121;-75
2022/06/09 06:08:38;;;;;;;6.40;2.58;;;26.20;99.90;;;;;;5110740;28;20035;-75
2022/06/09 06:11:06;;;;;;;4.57;3.08;;;26.00;99.90;;;;;;5109694;28;20046;-75
2022/06/09 06:13:34;;;;;;;4.28;2.85;;;26.00;99.90;;;;;;5110570;28;20559;-75
2022/06/09 06:16:02;;;;;;;4.45;3.17;;;25.80;99.90;;;;;;5092440;28;20051;-76
2022/06/09 06:18:46;;;;;;;7.97;2.75;;;25.70;99.90;;;;;;5109518;28;20072;-75
2022/06/09 06:21:14;;;;;;;3.92;2.50;;;25.70;99.90;;;;;;5109335;28;20097;-76
2022/06/09 06:23:42;;;;;;;5.55;2.58;;;25.50;99.90;;;;;;5109376;28;20043;-75
2022/06/09 06:26:11;;;;;;;6.88;2.78;;;25.70;99.90;;;;;;5109436;28;20459;-75
2022/06/09 06:28:38;;;;;;;5.80;3.40;;;25.70;99.90;;;;;;5107098;28;20048;-75
2022/06/09 06:31:07;;;;;;;6.18;2.70;;;25.80;99.90;;;;;;5110421;28;20047;-75
2022/06/09 06:33:35;;;;;;;8.85;3.58;;;25.80;99.70;;;;;;5109291;28;20063;-75
2022/06/09 06:36:03;;;;;;;5.13;2.22;;;25.80;99.30;;;;;;5092552;28;20379;-75
2022/06/09 06:38:31;;;;;;;3.53;2.42;;;25.70;98.90;;;;;;5109283;28;20051;-75
2022/06/09 06:40:59;;;;;;;6.15;2.60;;;25.50;99.10;;;;;;5108940;28;20457;-75
2022/06/09 06:43:27;;;;;;;3.72;2.47;;;25.40;99.00;;;;;;5109620;28;20046;-75
2022/06/09 06:45:55;;;;;;;5.70;2.75;;;25.40;99.30;;;;;;5108903;28;20795;-75
2022/06/09 06:48:23;;;;;;;4.45;2.42;;;25.40;99.00;;;;;;5108389;28;20039;-75
2022/06/09 06:50:51;;;;;;;10.45;3.67;;;25.50;99.10;;;;;;5109624;28;20040;-76
2022/06/09 06:53:20;;;;;;;4.93;3.08;;;25.60;99.10;;;;;;5109524;28;20121;-76
2022/06/09 06:55:48;;;;;;;4.88;2.45;;;25.90;98.60;;;;;;5112916;28;20055;-75
2022/06/09 06:58:15;;;;;;;7.70;2.47;;;26.20;98.00;;;;;;5095896;28;20142;-76
2022/06/09 07:00:43;;;;;;;7.00;2.45;;;26.60;97.50;;;;;;5112701;28;20128;-75
2022/06/09 07:03:12;;;;;;;4.35;2.28;;;26.80;96.70;;;;;;5113258;28;20075;-76
2022/06/09 07:05:48;;;;;;;4.90;2.25;;;26.90;96.10;;;;;;5113329;28;20047;-75
2022/06/09 07:08:16;;;;;;;7.65;2.50;;;26.90;96.00;;;;;;5112800;28;20100;-76
2022/06/09 07:10:45;;;;;;;4.20;1.80;;;27.10;96.00;;;;;;5095417;28;20046;-76
2022/06/09 07:13:13;;;;;;;7.53;2.42;;;27.30;95.70;;;;;;5112726;28;20143;-76
2022/06/09 07:15:41;;;;;;;4.55;2.45;;;27.40;95.70;;;;;;5113290;28;20050;-76
2022/06/09 07:18:09;;;;;;;6.07;2.35;;;27.70;95.60;;;;;;5113048;28;20044;-77
2022/06/09 07:20:39;;;;;;;7.18;2.58;;;27.70;95.30;;;;;;5110191;28;20036;-76
2022/06/09 07:23:08;;;;;;;5.22;2.25;;;27.80;95.00;;;;;;5113951;28;20521;-76
2022/06/09 07:25:36;;;;;;;7.93;2.13;;;27.90;94.70;;;;;;5112925;28;20471;-76
2022/06/09 07:28:05;;;;;;;3.30;2.38;;;28.00;93.80;;;;;;5112295;28;20050;-76
2022/06/09 07:30:33;;;;;;;5.43;2.45;;;27.80;93.60;;;;;;5111924;28;20116;-76
2022/06/09 07:33:01;;;;;;;6.85;2.88;;;27.80;93.50;;;;;;5112663;28;20109;-76
2022/06/09 07:35:34;;;;;;;5.43;2.47;;;27.60;93.60;;;;;;5095477;28;20170;-76
2022/06/09 07:38:04;;;;;;;3.67;2.13;;;27.90;93.40;;;;;;5112633;28;20435;-76
2022/06/09 07:40:38;;;;;;;17.10;2.60;;;27.80;93.10;;;;;;5095515;28;20777;-76
2022/06/09 07:43:06;;;;;;;4.88;1.73;;;28.00;93.30;;;;;;5112203;28;20044;-76
2022/06/09 07:45:35;;;;;;;4.03;2.25;;;28.40;92.40;;;;;;5094958;28;20538;-76
2022/06/09 07:48:04;;;;;;;4.18;2.00;;;28.70;91.90;;;;;;5095160;28;20054;-76
2022/06/09 07:50:33;;;;;;;5.07;2.45;;;28.60;91.40;;;;;;5095049;28;20055;-76
2022/06/09 07:53:01;;;;;;;3.88;1.77;;;28.60;91.30;;;;;;5095235;28;20047;-76
2022/06/09 07:55:29;;;;;;;4.28;1.73;;;28.60;90.90;;;;;;5095414;28;20047;-76
2022/06/09 07:57:56;;;;;;;5.80;1.80;;;28.60;90.60;;;;;;5112145;28;20051;-77
2022/06/09 08:00:25;;;;;;;4.18;2.25;;;28.70;91.10;;;;;;5111726;28;20093;-76
2022/06/09 08:02:54;;;;;;;6.03;1.80;;;29.00;91.00;;;;;;5111690;28;20393;-76
2022/06/09 08:05:23;;;;;;;7.65;2.33;;;29.10;90.60;;;;;;5111745;28;20056;-76
2022/06/09 08:07:54;;;;;;;5.45;2.40;;;29.40;90.40;;;;;;5110891;28;20501;-76
2022/06/09 08:10:24;;;;;;;3.85;2.10;;;29.50;90.00;;;;;;5111927;28;20513;-76
2022/06/09 08:12:57;;;;;;;5.82;2.88;;;29.80;89.80;;;;;;5094270;28;20105;-76
2022/06/09 08:15:27;;;;;;;4.50;2.90;;;29.50;89.10;;;;;;5094668;28;20484;-76
2022/06/09 08:17:57;;;;;;;3.40;2.45;;;29.20;88.90;;;;;;5111328;28;20067;-76
2022/06/09 08:20:28;;;;;;;5.00;2.72;;;28.90;89.00;;;;;;5094394;28;20588;-76
2022/06/09 08:23:18;;;;;;;3.47;2.65;;;28.90;89.40;;;;;;5089150;28;20423;-76
2022/06/09 08:25:47;;;;;;;3.95;2.22;;;29.10;89.20;;;;;;5111545;28;20119;-76
2022/06/09 08:28:18;;;;;;;3.25;2.45;;;29.10;87.90;;;;;;5094451;28;20052;-77
2022/06/09 08:30:52;;;;;;;4.72;2.58;;;29.40;88.30;;;;;;5110979;28;20075;-76
2022/06/09 08:33:22;;;;;;;4.40;2.72;;;29.70;87.70;;;;;;5094003;28;20055;-76
2022/06/09 08:35:50;;;;;;;3.00;1.52;;;29.50;86.50;;;;;;5110045;28;20047;-77
2022/06/09 08:38:23;;;;;;;3.60;1.95;;;29.50;86.30;;;;;;5111122;28;20036;-77
2022/06/09 08:40:56;;;;;;;4.05;2.10;;;29.50;86.70;;;;;;5094351;28;20417;-76
2022/06/09 08:43:36;;;;;;;4.50;2.20;;;29.90;85.60;;;;;;5111167;28;20126;-76
2022/06/09 08:46:28;;;;;;;4.47;2.05;;;30.00;85.40;;;;;;5110727;28;20048;-77
2022/06/09 08:49:00;;;;;;;5.10;1.70;;;29.60;84.90;;;;;;5094010;28;20497;-76
2022/06/09 08:51:45;;;;;;;4.22;1.98;;;29.70;85.10;;;;;;5093604;28;20051;-76
2022/06/09 08:54:16;;;;;;;5.13;1.83;;;29.80;84.60;;;;;;5077237;28;20051;-76
2022/06/09 08:56:45;;;;;;;4.97;2.20;;;29.70;83.70;;;;;;5076046;28;20048;-77
2022/06/09 08:59:19;;;;;;;4.22;1.50;;;29.50;82.90;;;;;;5057463;28;20405;-77
2022/06/09 09:02:03;;;;;;;5.05;1.98;;;29.50;83.60;;;;;;5056814;28;20055;-77
2022/06/09 09:04:40;;;;;;;3.53;2.10;;;29.80;83.30;;;;;;5090182;28;20040;-77
2022/06/09 09:07:43;;;;;;;4.88;2.25;;;29.90;83.00;;;;;;5090575;28;20093;-77
2022/06/09 09:10:24;;;;;;;3.20;1.70;;;29.60;82.90;;;;;;5091432;28;20135;-77
2022/06/09 09:13:24;;;;;;;4.97;2.30;;;29.20;84.00;;;;;;5073158;28;20056;-76
2022/06/09 09:16:19;;;;;;;4.90;2.08;;;28.90;85.00;;;;;;5089618;28;20036;-76
2022/06/09 09:19:03;;;;;;;2.92;1.75;;;28.70;86.10;;;;;;5054967;28;20056;-76
2022/06/09 09:21:47;;;;;;;5.88;2.08;;;28.70;87.30;;;;;;5090266;28;20375;-76
2022/06/09 09:24:18;;;;;;;4.20;2.03;;;28.60;88.60;;;;;;5091355;28;20044;-76
2022/06/09 09:27:16;;;;;;;5.80;2.95;;;28.50;88.90;;;;;;5073255;28;20059;-76
2022/06/09 09:30:11;;;;;;;5.45;2.03;;;28.80;88.90;;;;;;5091108;28;20043;-76
2022/06/09 09:32:43;;;;;;;5.72;2.70;;;29.10;89.20;;;;;;5072957;28;20044;-76
2022/06/09 09:35:24;;;;;;;6.22;2.65;;;29.40;88.30;;;;;;5072941;28;20048;-76
2022/06/09 09:37:55;;;;;;;5.78;2.60;;;29.50;88.10;;;;;;5073315;28;20067;-76
2022/06/09 09:40:43;;;;;;;3.72;2.45;;;29.50;88.00;;;;;;5089687;28;20052;-77
2022/06/09 09:43:14;;;;;;;5.57;2.47;;;29.60;87.60;;;;;;5089954;28;20158;-76
2022/06/09 09:45:49;;;;;;;5.38;2.00;;;29.60;88.40;;;;;;5073546;28;20056;-76
2022/06/09 09:48:17;;;;;;;4.57;2.00;;;29.50;86.80;;;;;;5089624;28;20040;-76
2022/06/09 09:50:59;;;;;;;5.22;2.20;;;29.20;84.70;;;;;;5090643;28;20443;-76
2022/06/09 09:53:47;;;;;;;5.63;2.10;;;28.80;84.60;;;;;;5056964;28;20597;-76
2022/06/09 09:56:14;;;;;;;3.50;1.73;;;28.90;85.40;;;;;;5056793;28;20398;-76
2022/06/09 09:58:48;;;;;;;5.40;1.90;;;28.80;84.70;;;;;;5072293;28;20089;-76
2022/06/09 10:08:35;;;;;;;3.90;1.98;;;28.70;84.50;;;;;;5089276;28;20114;-76
2022/06/09 10:10:26;;;;;;;2.83;1.55;;;28.90;82.50;;;;;;5072663;28;20059;-76
2022/06/09 10:12:55;;;;;;;3.47;1.67;;;28.80;84.00;;;;;;5089288;28;20131;-77
2022/06/09 10:15:42;;;;;;;4.00;1.55;;;28.80;83.90;;;;;;5072512;28;20081;-77
2022/06/09 10:18:18;;;;;;;8.32;1.90;;;29.10;84.30;;;;;;5088369;28;20763;-77
2022/06/09 10:21:08;;;;;;;4.97;2.75;;;29.10;84.20;;;;;;5089404;28;20032;-77
2022/06/09 10:23:47;;;;;;;3.78;1.50;;;29.10;85.20;;;;;;5072507;28;20076;-77
2022/06/09 10:26:19;;;;;;;4.60;1.73;;;29.40;84.30;;;;;;5088973;28;20067;-77
2022/06/09 10:29:05;;;;;;;4.35;1.70;;;29.70;84.20;;;;;;5091922;28;20048;-77
2022/06/09 10:31:40;;;;;;;;;;;29.50;82.90;;;;;;5092830;28;20076;-77
2022/06/09 10:34:31;;;;;;;6.40;1.92;;;29.60;84.50;;;;;;5109373;28;19977;-77
2022/06/09 10:37:07;;;;;;;3.17;1.58;;;29.60;83.80;;;;;;5076288;28;20394;-77
2022/06/09 10:39:48;;;;;;;3.65;1.63;;;29.60;83.70;;;;;;5076030;28;20072;-77
2022/06/09 10:42:23;;;;;;;4.72;1.95;;;29.60;83.60;;;;;;5076573;28;20043;-77
2022/06/09 10:44:59;;;;;;;2.78;1.20;;;29.60;83.50;;;;;;5092885;28;20068;-77
2022/06/09 10:57:02;;;;;;;5.25;2.67;;;29.50;83.30;;;;;;5112358;28;20044;-78
2022/06/09 11:00:05;;;;;;;4.35;1.40;;;29.40;83.30;;;;;;5095793;28;20135;-78
2022/06/09 11:02:34;;;;;;;5.93;1.92;;;29.20;84.00;;;;;;5112413;28;20040;-77
2022/06/09 11:05:04;;;;;;;4.35;1.58;;;29.20;83.50;;;;;;5113646;28;20075;-78
2022/06/09 11:07:37;;;;;;;2.55;1.52;;;29.10;83.80;;;;;;5112396;28;20051;-77
2022/06/09 11:10:17;;;;;;;2.42;1.30;;;29.10;83.80;;;;;;5112222;28;20063;-77
2022/06/09 11:13:13;;;;;;;3.63;1.65;;;29.10;84.30;;;;;;5095149;28;20137;-77
2022/06/09 11:16:10;;;;;;;3.45;1.60;;;29.20;84.10;;;;;;5095246;28;20058;-77
2022/06/09 11:18:51;;;;;;;3.83;1.80;;;29.30;82.80;;;;;;5111723;28;20043;-78
2022/06/09 11:21:27;;;;;;;6.97;1.67;;;29.40;83.30;;;;;;5112106;28;20043;-77
2022/06/09 11:23:54;;;;;;;;;;;29.40;82.50;;;;;;5112377;28;20105;-78
2022/06/09 11:26:50;;;;;;;5.97;2.25;;;29.40;81.30;;;;;;5111858;28;20017;-77
2022/06/09 11:29:44;;;;;;;6.80;2.58;;;29.50;81.30;;;;;;5104915;28;20062;-77
2022/06/09 11:32:14;;;;;;;8.20;3.20;;;29.50;81.40;;;;;;5113032;28;20079;-77
2022/06/09 11:34:48;;;;;;;4.95;2.40;;;29.60;81.30;;;;;;5111734;28;20573;-77
2022/06/09 11:37:22;;;;;;;5.15;3.10;;;29.70;81.20;;;;;;5109864;28;20054;-77
2022/06/09 11:40:14;;;;;;;5.03;3.15;;;29.70;80.90;;;;;;5112515;28;20032;-77
2022/06/09 11:43:11;;;;;;;5.28;2.30;;;29.70;80.70;;;;;;5112590;28;20044;-77
2022/06/09 11:46:00;;;;;;;5.93;1.58;;;29.50;80.30;;;;;;5094779;28;20512;-77
2022/06/09 11:48:41;;;;;;;4.55;1.75;;;29.60;80.90;;;;;;5111755;28;20039;-77
2022/06/09 11:51:09;;;;;;;2.80;1.58;;;29.50;81.50;;;;;;5094677;28;20088;-77
2022/06/09 11:53:47;;;;;;;5.57;2.13;;;29.30;82.90;;;;;;5112281;28;20068;-77
2022/06/09 11:56:33;;;;;;;4.18;2.10;;;29.20;84.60;;;;;;5087918;28;20052;-77
2022/06/09 11:59:12;;;;;;;5.93;1.60;;;28.80;84.80;;;;;;5095016;28;20052;-77
2022/06/09 12:01:40;;;;;;;6.28;1.70;;;28.60;86.60;;;;;;5110596;28;20066;-76
2022/06/09 12:04:25;;;;;;;6.18;2.00;;;28.40;88.30;;;;;;5111940;28;20085;-77
2022/06/09 12:07:38;;;;;;;5.82;2.42;;;28.60;89.90;;;;;;5095492;28;20401;-77
2022/06/09 12:10:28;;;;;;;6.18;1.88;;;28.60;87.70;;;;;;5077853;28;20500;-76
2022/06/09 12:13:22;;;;;;;4.65;2.00;;;28.20;86.60;;;;;;5111547;28;20047;-76
2022/06/09 12:15:58;;;;;;;3.35;1.85;;;28.10;86.00;;;;;;5111608;28;20501;-76
2022/06/09 12:18:48;;;;;;;3.97;1.65;;;28.40;86.10;;;;;;5077625;28;20168;-76
2022/06/09 12:21:36;;;;;;;3.42;1.80;;;28.50;86.70;;;;;;5078170;28;20051;-76
2022/06/09 12:24:21;;;;;;;5.95;1.58;;;28.90;86.70;;;;;;5091583;28;20505;-76
2022/06/09 12:27:00;;;;;;;7.25;2.55;;;29.10;86.20;;;;;;5105157;28;20051;-76
2022/06/09 12:29:34;;;;;;;4.97;1.55;;;29.10;86.50;;;;;;5093437;28;20062;-76
2022/06/09 12:32:08;;;;;;;13.30;2.85;;;29.00;88.70;;;;;;5085377;28;20093;-76
2022/06/09 12:34:49;;;;;;;6.82;2.50;;;28.80;89.60;;;;;;5104620;28;20044;-76
2022/06/09 12:37:29;;;;;;;6.80;2.40;;;28.70;90.10;;;;;;5111038;28;20036;-76
2022/06/09 12:40:07;;;;;;;6.18;2.10;;;28.30;90.50;;;;;;5075716;28;20051;-77
2022/06/09 12:42:43;;;;;;;5.63;2.30;;;28.10;90.90;;;;;;5110811;28;20097;-76
2022/06/09 12:45:26;;;;;;;10.00;2.78;;;28.00;91.20;;;;;;5091497;28;20059;-77
2022/06/09 12:48:20;;;;;;;8.65;2.63;;;28.20;91.60;;;;;;5110791;28;20039;-76
2022/06/09 12:50:52;;;;;;;7.68;3.08;;;28.20;92.10;;;;;;5104419;28;20459;-76
2022/06/09 12:53:26;;;;;;;13.27;4.00;;;28.20;92.30;;;;;;5110487;28;20100;-76
2022/06/09 12:56:02;;;;;;;7.47;3.65;;;28.20;92.70;;;;;;5088606;28;20071;-77
2022/06/09 12:58:46;;;;;;;15.10;3.47;;;28.10;92.90;;;;;;5093032;28;20680;-76
2022/06/09 13:01:21;;;;;;;6.50;2.67;;;28.00;93.20;;;;;;5107698;28;20062;-76
2022/06/09 13:03:55;;;;;;;17.67;3.03;;;27.80;93.40;;;;;;5109045;28;20048;-76
2022/06/09 13:06:26;;;;;;;8.57;3.67;;;27.70;93.50;;;;;;5093411;28;20051;-77
2022/06/09 13:09:10;;;;;;;13.05;2.88;;;27.60;93.60;;;;;;5091023;28;20289;-78
2022/06/09 13:14:31;;;;;;;9.90;2.15;;;27.40;93.00;;;;;;5089712;28;20055;-76
2022/06/09 13:17:16;;;;;;;4.88;2.10;;;27.50;92.70;;;;;;5077652;27;20039;-77
2022/06/09 13:19:56;;;;;;;6.93;2.47;;;27.70;91.80;;;;;;5091421;28;20048;-77
2022/06/09 13:22:26;;;;;;;6.10;1.90;;;27.80;91.70;;;;;;5075362;28;20051;-77
2022/06/09 13:24:55;;;;;;;9.07;2.13;;;27.90;92.00;;;;;;5110008;28;20638;-77
2022/06/09 13:27:29;;;;;;;7.68;2.17;;;28.00;92.20;;;;;;5093091;28;20047;-78
2022/06/09 13:30:39;;;;;;;4.47;2.37;;;28.00;92.40;;;;;;5092786;28;20146;-78
2022/06/09 13:33:25;;;;;;;5.38;2.17;;;27.90;92.80;;;;;;5090356;28;20056;-78
2022/06/09 13:36:25;;;;;;;6.47;2.20;;;27.80;93.40;;;;;;5090920;28;20508;-77
2022/06/09 13:38:54;;;;;;;7.22;2.60;;;27.70;93.90;;;;;;5090500;28;20056;-76
2022/06/09 13:41:25;;;;;;;4.55;1.75;;;27.70;94.40;;;;;;5090616;28;20055;-76
2022/06/09 13:43:58;;;;;;;5.72;2.17;;;27.60;94.10;;;;;;5072443;28;20089;-77
2022/06/09 13:46:30;;;;;;;7.45;1.95;;;27.60;94.10;;;;;;5072556;28;20052;-76